sensor_id;sensor_type;location;lat;lon;timestamp;temperature;humidity
45807;DHT22;31507;51.494;7.518;2023-06-04T00:02:19;10.00;99.90
45807;DHT22;31507;51.494;7.518;2023-06-04T00:04:45;10.00;99.90
45807;DHT22;31507;51.494;7.518;2023-06-04T00:07:10;10.00;99.90
45807;DHT22;31507;51.494;7.518;2023-06-04T00:09:36;9.90;99.90
45807;DHT22;31507;51.494;7.518;2023-06-04T00:12:02;9.80;99.90
45807;DHT22;31507;51.494;7.518;2023-06-04T00:14:27;9.80;99.90
45807;DHT22;31507;51.494;7.518;2023-06-04T00:16:53;9.80;99.90
45807;DHT22;31507;51.494;7.518;2023-06-04T00:19:19;9.80;99.90
45807;DHT22;31507;51.494;7.518;2023-06-04T00:21:45;9.80;99.90
45807;DHT22;31507;51.494;7.518;2023-06-04T00:24:11;9.70;99.90
45807;DHT22;31507;51.494;7.518;2023-06-04T00:26:37;9.70;99.90
45807;DHT22;31507;51.494;7.518;2023-06-04T00:29:03;9.50;99.90
45807;DHT22;31507;51.494;7.518;2023-06-04T00:31:29;9.40;99.90
45807;DHT22;31507;51.494;7.518;2023-06-04T00:33:54;9.20;99.90
45807;DHT22;31507;51.494;7.518;2023-06-04T00:36:20;9.20;99.90
45807;DHT22;31507;51.494;7.518;2023-06-04T00:38:46;9.20;99.90
45807;DHT22;31507;51.494;7.518;2023-06-04T00:41:11;9.10;99.90
45807;DHT22;31507;51.494;7.518;2023-06-04T00:43:37;9.00;99.90
45807;DHT22;31507;51.494;7.518;2023-06-04T00:46:03;8.90;99.90
45807;DHT22;31507;51.494;7.518;2023-06-04T00:48:29;8.80;99.90
45807;DHT22;31507;51.494;7.518;2023-06-04T00:50:56;8.80;99.90
45807;DHT22;31507;51.494;7.518;2023-06-04T00:53:24;8.80;99.90
45807;DHT22;31507;51.494;7.518;2023-06-04T00:55:50;8.70;99.90
45807;DHT22;31507;51.494;7.518;2023-06-04T00:58:16;8.60;99.90
45807;DHT22;31507;51.494;7.518;2023-06-04T01:00:45;8.50;99.90
45807;DHT22;31507;51.494;7.518;2023-06-04T01:03:14;8.40;99.90
45807;DHT22;31507;51.494;7.518;2023-06-04T01:06:04;8.40;99.90
45807;DHT22;31507;51.494;7.518;2023-06-04T01:08:32;8.30;99.90
45807;DHT22;31507;51.494;7.518;2023-06-04T01:10:57;8.30;99.90
45807;DHT22;31507;51.494;7.518;2023-06-04T01:13:24;8.20;99.90
45807;DHT22;31507;51.494;7.518;2023-06-04T01:15:50;8.20;99.90
45807;DHT22;31507;51.494;7.518;2023-06-04T01:18:21;8.20;99.90
45807;DHT22;31507;51.494;7.518;2023-06-04T01:21:14;8.20;99.90
45807;DHT22;31507;51.494;7.518;2023-06-04T01:23:49;8.20;99.90
45807;DHT22;31507;51.494;7.518;2023-06-04T01:26:25;8.10;99.90
45807;DHT22;31507;51.494;7.518;2023-06-04T01:28:52;8.10;99.90
45807;DHT22;31507;51.494;7.518;2023-06-04T01:31:19;8.00;99.90
45807;DHT22;31507;51.494;7.518;2023-06-04T01:33:51;7.90;99.90
45807;DHT22;31507;51.494;7.518;2023-06-04T01:36:17;7.90;99.90
45807;DHT22;31507;51.494;7.518;2023-06-04T01:38:43;8.00;99.90
45807;DHT22;31507;51.494;7.518;2023-06-04T01:41:08;7.90;99.90
45807;DHT22;31507;51.494;7.518;2023-06-04T01:43:34;8.00;99.90
45807;DHT22;31507;51.494;7.518;2023-06-04T01:46:01;8.00;99.90
45807;DHT22;31507;51.494;7.518;2023-06-04T01:48:27;8.00;99.90
45807;DHT22;31507;51.494;7.518;2023-06-04T01:50:52;7.90;99.90
45807;DHT22;31507;51.494;7.518;2023-06-04T01:53:18;7.90;99.90
45807;DHT22;31507;51.494;7.518;2023-06-04T01:55:44;7.90;99.90
45807;DHT22;31507;51.494;7.518;2023-06-04T01:58:10;7.90;99.90
45807;DHT22;31507;51.494;7.518;2023-06-04T02:00:35;7.80;99.90
45807;DHT22;31507;51.494;7.518;2023-06-04T02:03:01;7.70;99.90
45807;DHT22;31507;51.494;7.518;2023-06-04T02:05:27;7.70;99.90
45807;DHT22;31507;51.494;7.518;2023-06-04T02:07:52;7.70;99.90
45807;DHT22;31507;51.494;7.518;2023-06-04T02:10:19;7.60;99.90
45807;DHT22;31507;51.494;7.518;2023-06-04T02:13:00;7.60;99.90
45807;DHT22;31507;51.494;7.518;2023-06-04T02:15:30;7.60;99.90
45807;DHT22;31507;51.494;7.518;2023-06-04T02:18:15;7.70;99.90
45807;DHT22;31507;51.494;7.518;2023-06-04T02:20:43;7.70;99.90
45807;DHT22;31507;51.494;7.518;2023-06-04T02:23:10;7.70;99.90
45807;DHT22;31507;51.494;7.518;2023-06-04T02:25:35;7.70;99.90
45807;DHT22;31507;51.494;7.518;2023-06-04T02:28:01;7.80;99.90
45807;DHT22;31507;51.494;7.518;2023-06-04T02:30:26;7.70;99.90
45807;DHT22;31507;51.494;7.518;2023-06-04T02:32:52;7.70;99.90
45807;DHT22;31507;51.494;7.518;2023-06-04T02:35:20;7.70;99.90
45807;DHT22;31507;51.494;7.518;2023-06-04T02:37:48;7.70;99.90
45807;DHT22;31507;51.494;7.518;2023-06-04T02:40:14;7.70;99.90
45807;DHT22;31507;51.494;7.518;2023-06-04T02:42:39;7.60;99.90
45807;DHT22;31507;51.494;7.518;2023-06-04T02:45:06;7.60;99.90
45807;DHT22;31507;51.494;7.518;2023-06-04T02:47:31;7.60;99.90
45807;DHT22;31507;51.494;7.518;2023-06-04T02:49:57;7.60;99.90
45807;DHT22;31507;51.494;7.518;2023-06-04T02:52:23;7.60;99.90
45807;DHT22;31507;51.494;7.518;2023-06-04T02:54:50;7.50;99.90
45807;DHT22;31507;51.494;7.518;2023-06-04T02:57:16;7.50;99.90
45807;DHT22;31507;51.494;7.518;2023-06-04T02:59:42;7.40;99.90
45807;DHT22;31507;51.494;7.518;2023-06-04T03:02:07;7.40;99.90
45807;DHT22;31507;51.494;7.518;2023-06-04T03:04:33;7.30;99.90
45807;DHT22;31507;51.494;7.518;2023-06-04T03:07:02;7.20;99.90
45807;DHT22;31507;51.494;7.518;2023-06-04T03:09:30;7.20;99.90
45807;DHT22;31507;51.494;7.518;2023-06-04T03:11:59;7.10;99.90
45807;DHT22;31507;51.494;7.518;2023-06-04T03:14:26;7.10;99.90
45807;DHT22;31507;51.494;7.518;2023-06-04T03:16:58;7.10;99.90
45807;DHT22;31507;51.494;7.518;2023-06-04T03:19:26;7.10;99.90
45807;DHT22;31507;51.494;7.518;2023-06-04T03:21:53;7.10;99.90
45807;DHT22;31507;51.494;7.518;2023-06-04T03:24:19;7.10;99.90
45807;DHT22;31507;51.494;7.518;2023-06-04T03:26:44;7.10;99.90
45807;DHT22;31507;51.494;7.518;2023-06-04T03:29:10;7.10;99.90
45807;DHT22;31507;51.494;7.518;2023-06-04T03:31:37;7.00;99.90
45807;DHT22;31507;51.494;7.518;2023-06-04T03:34:02;7.00;99.90
45807;DHT22;31507;51.494;7.518;2023-06-04T03:36:30;6.90;99.90
45807;DHT22;31507;51.494;7.518;2023-06-04T03:39:03;6.90;99.90
45807;DHT22;31507;51.494;7.518;2023-06-04T03:41:30;6.90;99.90
45807;DHT22;31507;51.494;7.518;2023-06-04T03:43:56;6.80;99.90
45807;DHT22;31507;51.494;7.518;2023-06-04T03:46:21;6.90;99.90
45807;DHT22;31507;51.494;7.518;2023-06-04T03:48:47;6.90;99.90
45807;DHT22;31507;51.494;7.518;2023-06-04T03:51:12;6.90;99.90
45807;DHT22;31507;51.494;7.518;2023-06-04T03:53:38;6.90;99.90
45807;DHT22;31507;51.494;7.518;2023-06-04T03:56:04;6.90;99.90
45807;DHT22;31507;51.494;7.518;2023-06-04T03:58:29;6.90;99.90
45807;DHT22;31507;51.494;7.518;2023-06-04T04:00:55;6.80;99.90
45807;DHT22;31507;51.494;7.518;2023-06-04T04:03:22;6.80;99.90
45807;DHT22;31507;51.494;7.518;2023-06-04T04:05:48;7.00;99.90
45807;DHT22;31507;51.494;7.518;2023-06-04T04:08:13;7.00;99.90
45807;DHT22;31507;51.494;7.518;2023-06-04T04:10:41;7.10;99.90
45807;DHT22;31507;51.494;7.518;2023-06-04T04:13:07;7.10;99.90
45807;DHT22;31507;51.494;7.518;2023-06-04T04:15:32;7.10;99.90
45807;DHT22;31507;51.494;7.518;2023-06-04T04:18:14;7.10;99.90
45807;DHT22;31507;51.494;7.518;2023-06-04T04:20:42;7.10;99.90
45807;DHT22;31507;51.494;7.518;2023-06-04T04:23:07;7.30;99.90
45807;DHT22;31507;51.494;7.518;2023-06-04T04:25:33;7.30;99.90
45807;DHT22;31507;51.494;7.518;2023-06-04T04:27:59;7.30;99.90
45807;DHT22;31507;51.494;7.518;2023-06-04T04:30:25;7.30;99.90
45807;DHT22;31507;51.494;7.518;2023-06-04T04:32:51;7.40;99.90
45807;DHT22;31507;51.494;7.518;2023-06-04T04:35:17;7.50;99.90
45807;DHT22;31507;51.494;7.518;2023-06-04T04:37:44;7.50;99.90
45807;DHT22;31507;51.494;7.518;2023-06-04T04:40:10;7.60;99.90
45807;DHT22;31507;51.494;7.518;2023-06-04T04:42:37;7.60;99.90
45807;DHT22;31507;51.494;7.518;2023-06-04T04:45:03;7.70;99.90
45807;DHT22;31507;51.494;7.518;2023-06-04T04:47:29;7.80;99.90
45807;DHT22;31507;51.494;7.518;2023-06-04T04:49:55;7.90;99.90
45807;DHT22;31507;51.494;7.518;2023-06-04T04:52:21;8.00;99.90
45807;DHT22;31507;51.494;7.518;2023-06-04T04:54:46;8.10;99.90
45807;DHT22;31507;51.494;7.518;2023-06-04T04:57:12;8.30;99.90
45807;DHT22;31507;51.494;7.518;2023-06-04T04:59:38;8.40;99.90
45807;DHT22;31507;51.494;7.518;2023-06-04T05:02:03;8.50;99.90
45807;DHT22;31507;51.494;7.518;2023-06-04T05:04:29;8.60;99.90
45807;DHT22;31507;51.494;7.518;2023-06-04T05:06:55;8.70;99.90
45807;DHT22;31507;51.494;7.518;2023-06-04T05:09:20;8.90;99.90
45807;DHT22;31507;51.494;7.518;2023-06-04T05:11:46;9.00;99.90
45807;DHT22;31507;51.494;7.518;2023-06-04T05:14:11;9.10;99.90
45807;DHT22;31507;51.494;7.518;2023-06-04T05:16:37;9.20;99.90
45807;DHT22;31507;51.494;7.518;2023-06-04T05:19:04;9.30;99.90
45807;DHT22;31507;51.494;7.518;2023-06-04T05:21:29;9.40;99.90
45807;DHT22;31507;51.494;7.518;2023-06-04T05:23:55;9.60;99.90
45807;DHT22;31507;51.494;7.518;2023-06-04T05:26:21;9.80;99.90
45807;DHT22;31507;51.494;7.518;2023-06-04T05:28:51;9.90;99.90
45807;DHT22;31507;51.494;7.518;2023-06-04T05:31:16;10.10;99.90
45807;DHT22;31507;51.494;7.518;2023-06-04T05:33:43;10.40;99.90
45807;DHT22;31507;51.494;7.518;2023-06-04T05:36:09;10.70;99.90
45807;DHT22;31507;51.494;7.518;2023-06-04T05:38:35;11.10;99.90
45807;DHT22;31507;51.494;7.518;2023-06-04T05:41:01;11.90;99.90
45807;DHT22;31507;51.494;7.518;2023-06-04T05:43:27;12.90;99.90
45807;DHT22;31507;51.494;7.518;2023-06-04T05:45:53;14.20;99.90
45807;DHT22;31507;51.494;7.518;2023-06-04T05:48:18;15.20;99.90
45807;DHT22;31507;51.494;7.518;2023-06-04T05:50:44;15.70;96.30
45807;DHT22;31507;51.494;7.518;2023-06-04T05:53:10;16.10;92.70
45807;DHT22;31507;51.494;7.518;2023-06-04T05:55:36;16.70;90.50
45807;DHT22;31507;51.494;7.518;2023-06-04T05:58:01;17.10;87.60
45807;DHT22;31507;51.494;7.518;2023-06-04T06:00:27;17.70;84.70
45807;DHT22;31507;51.494;7.518;2023-06-04T06:02:53;17.90;80.80
45807;DHT22;31507;51.494;7.518;2023-06-04T06:05:19;18.20;77.50
45807;DHT22;31507;51.494;7.518;2023-06-04T06:07:45;18.00;74.10
45807;DHT22;31507;51.494;7.518;2023-06-04T06:10:12;18.20;74.70
45807;DHT22;31507;51.494;7.518;2023-06-04T06:12:37;18.60;73.70
45807;DHT22;31507;51.494;7.518;2023-06-04T06:15:04;18.60;70.40
45807;DHT22;31507;51.494;7.518;2023-06-04T06:17:30;18.60;69.60
45807;DHT22;31507;51.494;7.518;2023-06-04T06:19:56;18.50;68.70
45807;DHT22;31507;51.494;7.518;2023-06-04T06:22:22;18.40;68.30
45807;DHT22;31507;51.494;7.518;2023-06-04T06:24:48;18.30;68.20
45807;DHT22;31507;51.494;7.518;2023-06-04T06:27:17;18.20;67.70
45807;DHT22;31507;51.494;7.518;2023-06-04T06:29:43;17.90;69.00
45807;DHT22;31507;51.494;7.518;2023-06-04T06:32:10;17.10;70.00
45807;DHT22;31507;51.494;7.518;2023-06-04T06:34:36;16.40;71.20
45807;DHT22;31507;51.494;7.518;2023-06-04T06:37:02;16.20;72.20
45807;DHT22;31507;51.494;7.518;2023-06-04T06:39:28;16.10;72.80
45807;DHT22;31507;51.494;7.518;2023-06-04T06:41:54;16.30;71.70
45807;DHT22;31507;51.494;7.518;2023-06-04T06:44:19;17.00;70.80
45807;DHT22;31507;51.494;7.518;2023-06-04T06:46:45;17.70;69.10
45807;DHT22;31507;51.494;7.518;2023-06-04T06:49:10;17.80;66.90
45807;DHT22;31507;51.494;7.518;2023-06-04T06:51:36;17.90;66.60
45807;DHT22;31507;51.494;7.518;2023-06-04T06:54:02;18.10;66.30
45807;DHT22;31507;51.494;7.518;2023-06-04T06:56:27;18.40;66.20
45807;DHT22;31507;51.494;7.518;2023-06-04T06:58:53;18.50;66.10
45807;DHT22;31507;51.494;7.518;2023-06-04T07:01:18;18.80;65.80
45807;DHT22;31507;51.494;7.518;2023-06-04T07:03:44;18.80;65.30
45807;DHT22;31507;51.494;7.518;2023-06-04T07:06:10;18.90;65.10
45807;DHT22;31507;51.494;7.518;2023-06-04T07:08:35;18.80;65.70
45807;DHT22;31507;51.494;7.518;2023-06-04T07:11:03;18.50;65.40
45807;DHT22;31507;51.494;7.518;2023-06-04T07:13:29;18.50;66.00
45807;DHT22;31507;51.494;7.518;2023-06-04T07:15:57;18.90;65.90
45807;DHT22;31507;51.494;7.518;2023-06-04T07:18:23;19.20;65.20
45807;DHT22;31507;51.494;7.518;2023-06-04T07:20:48;19.30;64.90
45807;DHT22;31507;51.494;7.518;2023-06-04T07:23:14;19.20;63.80
45807;DHT22;31507;51.494;7.518;2023-06-04T07:25:40;19.20;64.60
45807;DHT22;31507;51.494;7.518;2023-06-04T07:28:06;19.20;65.30
45807;DHT22;31507;51.494;7.518;2023-06-04T07:30:32;19.20;63.90
45807;DHT22;31507;51.494;7.518;2023-06-04T07:32:57;19.00;63.50
45807;DHT22;31507;51.494;7.518;2023-06-04T07:35:23;18.80;63.00
45807;DHT22;31507;51.494;7.518;2023-06-04T07:37:49;18.80;64.40
45807;DHT22;31507;51.494;7.518;2023-06-04T07:40:16;18.80;63.20
45807;DHT22;31507;51.494;7.518;2023-06-04T07:42:42;19.10;62.70
45807;DHT22;31507;51.494;7.518;2023-06-04T07:45:08;19.20;61.10
45807;DHT22;31507;51.494;7.518;2023-06-04T07:47:35;19.20;61.20
45807;DHT22;31507;51.494;7.518;2023-06-04T07:50:02;19.20;60.40
45807;DHT22;31507;51.494;7.518;2023-06-04T07:52:28;19.30;60.50
45807;DHT22;31507;51.494;7.518;2023-06-04T07:54:54;19.50;58.90
45807;DHT22;31507;51.494;7.518;2023-06-04T07:57:19;19.50;58.70
45807;DHT22;31507;51.494;7.518;2023-06-04T07:59:45;19.60;58.60
45807;DHT22;31507;51.494;7.518;2023-06-04T08:02:10;19.70;58.20
45807;DHT22;31507;51.494;7.518;2023-06-04T08:04:36;19.90;58.40
45807;DHT22;31507;51.494;7.518;2023-06-04T08:07:02;20.00;57.60
45807;DHT22;31507;51.494;7.518;2023-06-04T08:09:28;20.30;58.50
45807;DHT22;31507;51.494;7.518;2023-06-04T08:11:53;20.30;57.20
45807;DHT22;31507;51.494;7.518;2023-06-04T08:14:19;20.10;58.30
45807;DHT22;31507;51.494;7.518;2023-06-04T08:16:47;20.40;58.00
45807;DHT22;31507;51.494;7.518;2023-06-04T08:19:12;20.50;57.40
45807;DHT22;31507;51.494;7.518;2023-06-04T08:21:39;20.80;57.20
45807;DHT22;31507;51.494;7.518;2023-06-04T08:24:08;20.70;55.70
45807;DHT22;31507;51.494;7.518;2023-06-04T08:26:34;20.80;57.00
45807;DHT22;31507;51.494;7.518;2023-06-04T08:29:02;21.00;56.70
45807;DHT22;31507;51.494;7.518;2023-06-04T08:31:29;21.30;55.60
45807;DHT22;31507;51.494;7.518;2023-06-04T08:33:55;21.40;56.70
45807;DHT22;31507;51.494;7.518;2023-06-04T08:36:20;21.40;55.50
45807;DHT22;31507;51.494;7.518;2023-06-04T08:38:46;21.20;56.60
45807;DHT22;31507;51.494;7.518;2023-06-04T08:41:20;21.00;56.60
45807;DHT22;31507;51.494;7.518;2023-06-04T08:43:51;21.20;56.30
45807;DHT22;31507;51.494;7.518;2023-06-04T08:46:20;21.60;56.50
45807;DHT22;31507;51.494;7.518;2023-06-04T08:48:46;21.40;55.10
45807;DHT22;31507;51.494;7.518;2023-06-04T08:51:13;21.40;55.90
45807;DHT22;31507;51.494;7.518;2023-06-04T08:53:39;21.80;56.40
45807;DHT22;31507;51.494;7.518;2023-06-04T08:56:07;21.80;56.70
45807;DHT22;31507;51.494;7.518;2023-06-04T08:58:32;22.00;56.40
45807;DHT22;31507;51.494;7.518;2023-06-04T09:01:01;22.00;55.80
45807;DHT22;31507;51.494;7.518;2023-06-04T09:03:28;21.70;54.90
45807;DHT22;31507;51.494;7.518;2023-06-04T09:05:58;21.80;55.10
45807;DHT22;31507;51.494;7.518;2023-06-04T09:08:25;22.20;55.90
45807;DHT22;31507;51.494;7.518;2023-06-04T09:10:55;22.10;55.50
45807;DHT22;31507;51.494;7.518;2023-06-04T09:13:22;22.20;55.60
45807;DHT22;31507;51.494;7.518;2023-06-04T09:16:03;22.20;55.70
45807;DHT22;31507;51.494;7.518;2023-06-04T09:18:29;22.00;56.20
45807;DHT22;31507;51.494;7.518;2023-06-04T09:21:06;22.20;56.40
45807;DHT22;31507;51.494;7.518;2023-06-04T09:23:48;22.20;56.30
45807;DHT22;31507;51.494;7.518;2023-06-04T09:26:14;22.50;56.30
45807;DHT22;31507;51.494;7.518;2023-06-04T09:28:45;22.60;55.60
45807;DHT22;31507;51.494;7.518;2023-06-04T09:31:18;22.80;56.20
45807;DHT22;31507;51.494;7.518;2023-06-04T09:33:48;22.80;56.00
45807;DHT22;31507;51.494;7.518;2023-06-04T09:36:13;23.00;55.10
45807;DHT22;31507;51.494;7.518;2023-06-04T09:38:39;22.90;54.40
45807;DHT22;31507;51.494;7.518;2023-06-04T09:41:17;22.80;53.50
45807;DHT22;31507;51.494;7.518;2023-06-04T09:43:45;22.80;53.20
45807;DHT22;31507;51.494;7.518;2023-06-04T09:46:14;23.00;53.40
45807;DHT22;31507;51.494;7.518;2023-06-04T09:48:41;23.20;53.30
45807;DHT22;31507;51.494;7.518;2023-06-04T09:51:08;23.30;53.20
45807;DHT22;31507;51.494;7.518;2023-06-04T09:53:33;23.30;51.40
45807;DHT22;31507;51.494;7.518;2023-06-04T09:56:00;23.40;52.40
45807;DHT22;31507;51.494;7.518;2023-06-04T09:58:28;23.30;51.10
45807;DHT22;31507;51.494;7.518;2023-06-04T10:01:02;23.40;50.40
45807;DHT22;31507;51.494;7.518;2023-06-04T10:03:35;23.20;51.00
45807;DHT22;31507;51.494;7.518;2023-06-04T10:06:03;23.20;50.60
45807;DHT22;31507;51.494;7.518;2023-06-04T10:08:30;23.40;50.50
45807;DHT22;31507;51.494;7.518;2023-06-04T10:11:01;23.60;50.90
45807;DHT22;31507;51.494;7.518;2023-06-04T10:13:30;23.90;49.30
45807;DHT22;31507;51.494;7.518;2023-06-04T10:15:57;23.90;49.80
45807;DHT22;31507;51.494;7.518;2023-06-04T10:18:24;23.90;49.20
45807;DHT22;31507;51.494;7.518;2023-06-04T10:20:53;23.60;49.60
45807;DHT22;31507;51.494;7.518;2023-06-04T10:23:20;23.80;50.30
45807;DHT22;31507;51.494;7.518;2023-06-04T10:25:49;23.80;48.80
45807;DHT22;31507;51.494;7.518;2023-06-04T10:28:15;24.00;48.70
45807;DHT22;31507;51.494;7.518;2023-06-04T10:30:43;24.30;48.60
45807;DHT22;31507;51.494;7.518;2023-06-04T10:33:09;24.70;47.80
45807;DHT22;31507;51.494;7.518;2023-06-04T10:35:35;24.40;47.80
45807;DHT22;31507;51.494;7.518;2023-06-04T10:38:08;24.40;47.00
45807;DHT22;31507;51.494;7.518;2023-06-04T10:40:35;24.50;47.70
45807;DHT22;31507;51.494;7.518;2023-06-04T10:43:11;24.60;47.50
45807;DHT22;31507;51.494;7.518;2023-06-04T10:45:37;24.70;46.20
45807;DHT22;31507;51.494;7.518;2023-06-04T10:48:08;24.50;46.40
45807;DHT22;31507;51.494;7.518;2023-06-04T10:50:35;24.40;47.00
45807;DHT22;31507;51.494;7.518;2023-06-04T10:53:01;24.40;47.50
45807;DHT22;31507;51.494;7.518;2023-06-04T10:55:31;24.90;47.40
45807;DHT22;31507;51.494;7.518;2023-06-04T10:58:01;24.80;46.50
45807;DHT22;31507;51.494;7.518;2023-06-04T11:00:38;24.90;46.80
45807;DHT22;31507;51.494;7.518;2023-06-04T11:03:10;25.20;46.30
45807;DHT22;31507;51.494;7.518;2023-06-04T11:05:36;25.20;46.20
45807;DHT22;31507;51.494;7.518;2023-06-04T11:08:04;25.20;46.80
45807;DHT22;31507;51.494;7.518;2023-06-04T11:10:33;25.00;46.10
45807;DHT22;31507;51.494;7.518;2023-06-04T11:12:59;25.00;46.50
45807;DHT22;31507;51.494;7.518;2023-06-04T11:15:25;25.00;47.10
45807;DHT22;31507;51.494;7.518;2023-06-04T11:17:52;25.30;47.70
45807;DHT22;31507;51.494;7.518;2023-06-04T11:20:19;25.20;46.80
45807;DHT22;31507;51.494;7.518;2023-06-04T11:22:56;25.20;46.50
45807;DHT22;31507;51.494;7.518;2023-06-04T11:25:23;25.30;46.70
45807;DHT22;31507;51.494;7.518;2023-06-04T11:27:49;25.30;46.10
45807;DHT22;31507;51.494;7.518;2023-06-04T11:30:16;25.30;47.20
45807;DHT22;31507;51.494;7.518;2023-06-04T11:32:42;25.50;46.10
45807;DHT22;31507;51.494;7.518;2023-06-04T11:35:07;25.70;47.20
45807;DHT22;31507;51.494;7.518;2023-06-04T11:37:34;25.80;46.50
45807;DHT22;31507;51.494;7.518;2023-06-04T11:40:00;25.80;46.90
45807;DHT22;31507;51.494;7.518;2023-06-04T11:42:29;25.90;47.00
45807;DHT22;31507;51.494;7.518;2023-06-04T11:44:58;25.50;46.00
45807;DHT22;31507;51.494;7.518;2023-06-04T11:47:24;25.70;46.90
45807;DHT22;31507;51.494;7.518;2023-06-04T11:49:56;25.70;45.50
45807;DHT22;31507;51.494;7.518;2023-06-04T11:52:22;25.50;46.30
45807;DHT22;31507;51.494;7.518;2023-06-04T11:54:48;25.40;45.90
45807;DHT22;31507;51.494;7.518;2023-06-04T11:57:14;25.40;45.80
45807;DHT22;31507;51.494;7.518;2023-06-04T11:59:39;25.60;46.00
45807;DHT22;31507;51.494;7.518;2023-06-04T12:02:07;25.60;45.90
45807;DHT22;31507;51.494;7.518;2023-06-04T12:04:33;25.80;45.90
45807;DHT22;31507;51.494;7.518;2023-06-04T12:07:01;25.90;45.70
45807;DHT22;31507;51.494;7.518;2023-06-04T12:09:31;25.70;46.30
45807;DHT22;31507;51.494;7.518;2023-06-04T12:12:04;25.70;46.70
45807;DHT22;31507;51.494;7.518;2023-06-04T12:14:30;25.90;46.40
45807;DHT22;31507;51.494;7.518;2023-06-04T12:17:00;25.90;46.10
45807;DHT22;31507;51.494;7.518;2023-06-04T12:19:26;25.60;45.30
45807;DHT22;31507;51.494;7.518;2023-06-04T12:22:06;25.80;45.80
45807;DHT22;31507;51.494;7.518;2023-06-04T12:24:46;25.80;45.50
45807;DHT22;31507;51.494;7.518;2023-06-04T12:27:11;25.80;46.00
45807;DHT22;31507;51.494;7.518;2023-06-04T12:29:37;25.90;46.00
45807;DHT22;31507;51.494;7.518;2023-06-04T12:32:08;26.00;45.80
45807;DHT22;31507;51.494;7.518;2023-06-04T12:34:34;26.10;45.80
45807;DHT22;31507;51.494;7.518;2023-06-04T12:37:01;26.00;45.30
45807;DHT22;31507;51.494;7.518;2023-06-04T12:39:28;26.10;44.80
45807;DHT22;31507;51.494;7.518;2023-06-04T12:41:55;25.90;43.70
45807;DHT22;31507;51.494;7.518;2023-06-04T12:44:20;25.80;44.00
45807;DHT22;31507;51.494;7.518;2023-06-04T12:46:46;25.70;44.10
45807;DHT22;31507;51.494;7.518;2023-06-04T12:49:12;25.60;44.70
45807;DHT22;31507;51.494;7.518;2023-06-04T12:51:38;25.70;44.50
45807;DHT22;31507;51.494;7.518;2023-06-04T12:54:04;26.00;44.20
45807;DHT22;31507;51.494;7.518;2023-06-04T12:56:30;26.10;44.10
45807;DHT22;31507;51.494;7.518;2023-06-04T12:58:56;25.90;42.90
45807;DHT22;31507;51.494;7.518;2023-06-04T13:01:22;25.90;43.40
45807;DHT22;31507;51.494;7.518;2023-06-04T13:03:48;26.20;43.60
45807;DHT22;31507;51.494;7.518;2023-06-04T13:06:15;26.30;42.30
45807;DHT22;31507;51.494;7.518;2023-06-04T13:08:41;26.40;42.00
45807;DHT22;31507;51.494;7.518;2023-06-04T13:11:06;26.10;40.20
45807;DHT22;31507;51.494;7.518;2023-06-04T13:13:33;26.20;41.60
45807;DHT22;31507;51.494;7.518;2023-06-04T13:15:59;26.60;41.00
45807;DHT22;31507;51.494;7.518;2023-06-04T13:18:24;26.30;40.00
45807;DHT22;31507;51.494;7.518;2023-06-04T13:20:50;26.20;40.80
45807;DHT22;31507;51.494;7.518;2023-06-04T13:23:15;26.30;41.70
45807;DHT22;31507;51.494;7.518;2023-06-04T13:25:42;26.50;41.80
45807;DHT22;31507;51.494;7.518;2023-06-04T13:28:08;26.80;41.20
45807;DHT22;31507;51.494;7.518;2023-06-04T13:30:37;26.70;39.80
45807;DHT22;31507;51.494;7.518;2023-06-04T13:33:04;26.60;40.40
45807;DHT22;31507;51.494;7.518;2023-06-04T13:35:29;26.50;40.30
45807;DHT22;31507;51.494;7.518;2023-06-04T13:37:55;26.40;39.70
45807;DHT22;31507;51.494;7.518;2023-06-04T13:40:21;26.20;40.10
45807;DHT22;31507;51.494;7.518;2023-06-04T13:42:46;26.30;39.80
45807;DHT22;31507;51.494;7.518;2023-06-04T13:45:12;26.50;40.70
45807;DHT22;31507;51.494;7.518;2023-06-04T13:47:38;26.70;40.10
45807;DHT22;31507;51.494;7.518;2023-06-04T13:50:04;26.80;40.70
45807;DHT22;31507;51.494;7.518;2023-06-04T13:52:30;26.80;41.40
45807;DHT22;31507;51.494;7.518;2023-06-04T13:54:56;26.40;40.90
45807;DHT22;31507;51.494;7.518;2023-06-04T13:57:25;26.60;42.00
45807;DHT22;31507;51.494;7.518;2023-06-04T13:59:51;26.70;41.20
45807;DHT22;31507;51.494;7.518;2023-06-04T14:02:16;26.40;40.20
45807;DHT22;31507;51.494;7.518;2023-06-04T14:04:42;26.50;40.70
45807;DHT22;31507;51.494;7.518;2023-06-04T14:07:08;26.40;40.10
45807;DHT22;31507;51.494;7.518;2023-06-04T14:09:34;26.60;40.40
45807;DHT22;31507;51.494;7.518;2023-06-04T14:12:01;26.60;39.60
45807;DHT22;31507;51.494;7.518;2023-06-04T14:14:27;26.30;39.60
45807;DHT22;31507;51.494;7.518;2023-06-04T14:16:56;26.30;40.50
45807;DHT22;31507;51.494;7.518;2023-06-04T14:19:22;26.50;40.60
45807;DHT22;31507;51.494;7.518;2023-06-04T14:21:48;26.80;41.40
45807;DHT22;31507;51.494;7.518;2023-06-04T14:24:14;26.70;40.60
45807;DHT22;31507;51.494;7.518;2023-06-04T14:26:39;26.60;41.20
45807;DHT22;31507;51.494;7.518;2023-06-04T14:29:05;26.40;41.30
45807;DHT22;31507;51.494;7.518;2023-06-04T14:31:31;26.50;42.00
45807;DHT22;31507;51.494;7.518;2023-06-04T14:33:56;26.40;41.40
45807;DHT22;31507;51.494;7.518;2023-06-04T14:36:22;26.50;42.00
45807;DHT22;31507;51.494;7.518;2023-06-04T14:38:48;26.50;41.80
45807;DHT22;31507;51.494;7.518;2023-06-04T14:41:14;26.20;41.70
45807;DHT22;31507;51.494;7.518;2023-06-04T14:43:40;26.00;42.90
45807;DHT22;31507;51.494;7.518;2023-06-04T14:46:06;25.80;41.40
45807;DHT22;31507;51.494;7.518;2023-06-04T14:48:31;25.70;42.40
45807;DHT22;31507;51.494;7.518;2023-06-04T14:50:57;25.90;43.40
45807;DHT22;31507;51.494;7.518;2023-06-04T14:53:23;26.20;43.60
45807;DHT22;31507;51.494;7.518;2023-06-04T14:55:49;26.10;42.20
45807;DHT22;31507;51.494;7.518;2023-06-04T14:58:15;26.10;42.30
45807;DHT22;31507;51.494;7.518;2023-06-04T15:00:45;26.20;42.40
45807;DHT22;31507;51.494;7.518;2023-06-04T15:03:10;26.20;43.10
45807;DHT22;31507;51.494;7.518;2023-06-04T15:05:37;26.40;43.10
45807;DHT22;31507;51.494;7.518;2023-06-04T15:08:03;26.40;42.80
45807;DHT22;31507;51.494;7.518;2023-06-04T15:10:29;26.40;42.80
45807;DHT22;31507;51.494;7.518;2023-06-04T15:12:55;26.50;43.00
45807;DHT22;31507;51.494;7.518;2023-06-04T15:15:22;26.50;43.10
45807;DHT22;31507;51.494;7.518;2023-06-04T15:17:48;26.40;42.30
45807;DHT22;31507;51.494;7.518;2023-06-04T15:20:14;26.40;43.50
45807;DHT22;31507;51.494;7.518;2023-06-04T15:22:40;26.50;43.10
45807;DHT22;31507;51.494;7.518;2023-06-04T15:25:06;26.50;42.30
45807;DHT22;31507;51.494;7.518;2023-06-04T15:27:32;26.20;42.90
45807;DHT22;31507;51.494;7.518;2023-06-04T15:29:58;26.10;43.00
45807;DHT22;31507;51.494;7.518;2023-06-04T15:32:23;25.80;42.00
45807;DHT22;31507;51.494;7.518;2023-06-04T15:34:49;25.70;42.30